CheckWX is a tool to help pilots better visualize weather data.  It is not intended as a substitute for an official pre-flight weather briefing.

04:59:32 UTC

KFAT TAF
Fresno Yosemite International Airport
Fresno, California, USA
KFAT 282320Z 2900/2924 VRB03KT P6SM BKN200

Feb-29@
00:00 UTC

Feb-29 @ 00:00 UTC

Mar-1@
00:00 UTC

Mar-1 @ 00:00 UTC

KFAT 282320Z 2900/2924 VRB03KT P6SM BKN200
Wind
  • Variable at 3 KTS
Cloud Levels
  • Broken at 20,000' AGL